Dale Hollow Observed Data For Previous 48 Hours

Caption
Day and Hour Reservoir Elevation (behind dam)* Tailwater Elevation (below dam)* Average Hourly Discharge*
9/21/2017 1 AM CDT 644.48 504.18 25
9/21/2017 2 AM CDT 644.48 504.08 25
9/21/2017 3 AM CDT 644.48 504.08 25
9/21/2017 4 AM CDT 644.48 503.98 25
9/21/2017 5 AM CDT 644.48 503.98 25
9/21/2017 6 AM CDT 644.48 503.98 25
9/21/2017 7 AM CDT 644.47 504.07 25
9/21/2017 8 AM CDT 644.47 504.07 25
9/21/2017 9 AM CDT 644.47 504.17 25
9/21/2017 10 AM CDT 644.46 510.66 3,174
9/21/2017 11 AM CDT 644.45 513.75 4,866
9/21/2017 12 PM CDT 644.42 514.22 4,884
9/21/2017 1 PM CDT 644.39 514.39 4,882
9/21/2017 2 PM CDT 644.37 514.47 4,882
9/21/2017 3 PM CDT 644.37 514.47 4,882
9/21/2017 4 PM CDT 644.36 514.36 4,882
9/21/2017 5 PM CDT 644.35 511.65 3,188
9/21/2017 6 PM CDT 644.34 507.14 25
9/21/2017 7 PM CDT 644.39 505.19 25
9/21/2017 8 PM CDT 644.39 504.59 25
9/21/2017 9 PM CDT 644.30 504.40 25
9/21/2017 10 PM CDT 644.30 504.20 25
9/21/2017 11 PM CDT 644.30 504.20 25
9/22/2017 12 AM CDT 644.30 504.10 25
9/22/2017 1 AM CDT 644.30 504.00 25
9/22/2017 2 AM CDT 644.30 503.90 25
9/22/2017 3 AM CDT 644.30 503.90 25
9/22/2017 4 AM CDT 644.30 503.90 25
9/22/2017 5 AM CDT 644.30 504.00 25
9/22/2017 6 AM CDT 644.30 504.10 25
9/22/2017 7 AM CDT 644.30 504.10 25
9/22/2017 8 AM CDT 644.30 504.20 25
9/22/2017 9 AM CDT 644.30 504.20 25
9/22/2017 10 AM CDT 644.30 510.40 3,175
9/22/2017 11 AM CDT 644.30 513.40 4,847
9/22/2017 12 PM CDT 644.30 514.10 4,884
9/22/2017 1 PM CDT 644.28 514.28 4,882
9/22/2017 2 PM CDT 644.27 514.37 4,882
9/22/2017 3 PM CDT 644.26 514.36 4,882
9/22/2017 4 PM CDT 644.25 514.35 4,882
9/22/2017 5 PM CDT 644.24 512.35 3,192
9/22/2017 6 PM CDT 644.23 507.13 25
9/22/2017 7 PM CDT 644.23 505.23 25
9/22/2017 8 PM CDT 644.22 504.62 25
9/22/2017 9 PM CDT 644.21 504.31 25
9/22/2017 10 PM CDT 644.21 504.11 25
9/22/2017 11 PM CDT 644.21 503.91 25
9/23/2017 12 AM CDT 644.21 503.81 25

Elevations are in feet above sea level. Discharges are in cubic feet per second and are reported at the end of the hour.